Time;durP1;ratioP1;P1;durP2;ratioP2;P2;SDS_P1;SDS_P2;PMS_P1;PMS_P2;Temp;Humidity;BMP_temperature;BMP_pressure;BME280_temperature;BME280_humidity;BME280_pressure;Samples;Min_cycle;Max_cycle;Signal;HPM_P1;HPM_P2
2023/03/24 00:01:03;;;;;;;3.60;1.70;;;;;;;11.03;62.16;97294.19;6131415;28;20584;-36
2023/03/24 00:04:05;;;;;;;2.10;1.60;;;;;;;10.98;62.13;97292.28;6130488;28;20280;-36
2023/03/24 00:07:13;;;;;;;3.20;1.53;;;;;;;10.94;62.18;97288.53;6131678;28;20240;-36
2023/03/24 00:10:19;;;;;;;1.63;1.53;;;;;;;10.90;61.88;97284.78;6130138;28;20609;-36
2023/03/24 00:13:21;;;;;;;3.67;1.47;;;;;;;10.84;62.22;97283.13;6130919;28;20246;-36
2023/03/24 00:16:23;;;;;;;3.57;1.60;;;;;;;10.79;61.84;97285.75;6129649;28;20619;-36
2023/03/24 00:19:25;;;;;;;1.57;1.47;;;;;;;10.75;61.90;97277.44;6127435;28;20384;-37
2023/03/24 00:22:28;;;;;;;1.70;1.60;;;;;;;10.71;61.56;97278.19;6131001;28;20247;-36
2023/03/24 00:25:35;;;;;;;1.97;1.57;;;;;;;10.66;61.92;97275.50;6129031;28;20675;-37
2023/03/24 00:28:37;;;;;;;1.60;1.40;;;;;;;10.65;61.91;97273.88;6133898;28;20295;-36
2023/03/24 00:31:40;;;;;;;3.63;1.57;;;;;;;10.38;62.15;97237.38;6132525;28;20291;-37
2023/03/24 00:34:42;;;;;;;1.90;1.47;;;;;;;10.56;62.26;97269.00;6137711;28;20269;-37
2023/03/24 00:37:45;;;;;;;2.63;1.70;;;;;;;10.39;62.65;97238.19;6139954;28;20270;-37
2023/03/24 00:40:47;;;;;;;2.17;1.87;;;;;;;10.49;63.09;97255.09;6134755;28;20237;-36
2023/03/24 00:43:50;;;;;;;1.50;1.40;;;;;;;10.51;62.70;97254.84;6130349;28;20719;-37
2023/03/24 00:46:54;;;;;;;2.73;1.63;;;;;;;10.48;62.69;97244.69;6135486;28;20358;-36
2023/03/24 00:50:00;;;;;;;1.67;1.50;;;;;;;10.45;62.68;97243.34;6135349;28;20234;-37
2023/03/24 00:53:03;;;;;;;2.10;1.83;;;;;;;10.43;62.84;97237.44;6133991;28;20232;-37
2023/03/24 00:56:05;;;;;;;2.80;1.73;;;;;;;10.28;62.64;97208.81;6133330;28;20249;-36
2023/03/24 00:59:08;;;;;;;1.80;1.30;;;;;;;10.41;63.10;97231.56;6148941;28;20267;-37
2023/03/24 01:02:11;;;;;;;2.53;1.37;;;;;;;10.37;63.22;97217.16;6150246;28;20236;-37
2023/03/24 01:05:16;;;;;;;1.73;1.47;;;;;;;10.32;62.95;97211.78;6134418;28;20622;-36
2023/03/24 01:08:19;;;;;;;4.67;1.50;;;;;;;10.28;63.65;97213.31;6133614;28;20254;-36
2023/03/24 01:11:24;;;;;;;1.83;1.60;;;;;;;10.31;63.73;97223.50;6135074;28;20237;-37
2023/03/24 01:14:26;;;;;;;1.70;1.53;;;;;;;10.31;63.36;97220.81;6134221;28;20265;-37
2023/03/24 01:17:28;;;;;;;1.37;1.27;;;;;;;10.30;63.60;97203.25;6128437;28;20596;-36
2023/03/24 01:20:31;;;;;;;1.23;1.13;;;;;;;10.27;64.18;97206.41;6134994;28;20241;-37
2023/03/24 01:23:34;;;;;;;1.93;1.43;;;;;;;10.13;63.77;97190.00;6132485;28;20605;-36
2023/03/24 01:26:36;;;;;;;1.50;1.33;;;;;;;10.08;63.83;97196.06;6133724;28;20587;-36
2023/03/24 01:29:39;;;;;;;1.70;1.57;;;;;;;10.24;63.61;97205.03;6130767;28;20238;-36
2023/03/24 01:32:42;;;;;;;1.47;1.37;;;;;;;10.04;64.37;97180.84;6133154;28;20718;-37
2023/03/24 01:35:45;;;;;;;1.93;1.70;;;;;;;10.19;64.11;97220.13;6134305;28;20307;-37
2023/03/24 01:38:47;;;;;;;2.13;1.60;;;;;;;10.21;64.38;97204.72;6131721;28;20236;-37
2023/03/24 01:41:49;;;;;;;1.57;1.20;;;;;;;10.25;64.25;97200.53;6134191;28;20250;-36
2023/03/24 01:44:56;;;;;;;3.60;1.47;;;;;;;10.08;64.37;97171.31;6130274;28;20647;-37
2023/03/24 01:47:58;;;;;;;1.47;1.30;;;;;;;10.18;64.33;97200.69;6132387;28;20691;-37
2023/03/24 01:51:07;;;;;;;2.53;1.63;;;;;;;10.18;64.19;97197.22;6134127;28;20235;-36
2023/03/24 01:54:20;;;;;;;1.83;1.43;;;;;;;10.14;64.32;97196.13;6128583;28;20247;-36
2023/03/24 01:57:36;;;;;;;1.67;1.47;;;;;;;9.97;64.45;97166.94;6140320;28;20236;-36
2023/03/24 02:00:38;;;;;;;1.53;1.43;;;;;;;10.15;64.18;97187.06;6127652;28;20771;-36
2023/03/24 02:04:07;;;;;;;2.90;1.73;;;;;;;10.12;64.68;97184.94;6102487;28;20295;-36
2023/03/24 02:07:35;;;;;;;2.30;1.83;;;;;;;10.07;64.57;97183.00;6131212;28;20337;-36
2023/03/24 02:10:38;;;;;;;4.00;1.50;;;;;;;10.04;64.52;97172.84;6130892;28;20678;-36
2023/03/24 02:13:40;;;;;;;1.97;1.53;;;;;;;10.04;64.77;97176.31;6131412;28;20241;-36
2023/03/24 02:17:12;;;;;;;1.50;1.40;;;;;;;10.01;64.56;97184.81;6133735;28;20391;-36
2023/03/24 02:20:39;;;;;;;3.07;1.73;;;;;;;10.03;64.37;97180.03;6131069;28;20662;-36
2023/03/24 02:23:54;;;;;;;2.20;1.70;;;;;;;10.02;64.39;97181.09;6130613;28;20835;-37
2023/03/24 02:27:35;;;;;;;1.40;1.30;;;;;;;10.01;64.33;97176.84;6131354;28;20816;-36
2023/03/24 02:30:53;;;;;;;3.40;1.90;;;;;;;9.99;64.20;97181.59;6109159;28;20248;-36
2023/03/24 02:34:08;;;;;;;1.90;1.40;;;;;;;9.97;64.43;97182.91;6129528;28;20237;-36
2023/03/24 02:37:26;;;;;;;1.67;1.40;;;;;;;9.98;64.21;97187.16;6125963;28;20256;-36
2023/03/24 02:40:52;;;;;;;1.40;1.30;;;;;;;10.04;64.22;97175.53;6128085;28;20248;-36
2023/03/24 02:43:54;;;;;;;2.00;1.37;;;;;;;10.03;64.24;97172.06;6142942;28;20235;-36
2023/03/24 02:47:02;;;;;;;2.73;1.50;;;;;;;10.07;64.41;97169.72;6127154;28;20639;-36
2023/03/24 02:50:23;;;;;;;1.60;1.50;;;;;;;10.04;64.41;97163.00;6131821;28;20232;-37
2023/03/24 02:54:04;;;;;;;2.47;1.80;;;;;;;10.04;64.75;97156.88;6130963;28;20744;-36
2023/03/24 02:57:20;;;;;;;1.63;1.40;;;;;;;10.11;64.66;97160.19;6118747;28;20263;-36
2023/03/24 03:01:02;;;;;;;1.93;1.60;;;;;;;10.14;65.06;97146.34;6137182;28;20330;-36
2023/03/24 03:04:35;;;;;;;2.83;1.50;;;;;;;10.03;64.87;97129.47;6110973;28;20247;-37
2023/03/24 03:07:40;;;;;;;3.20;1.77;;;;;;;10.23;65.17;97146.69;6130260;28;20728;-37
2023/03/24 03:10:45;;;;;;;2.00;1.57;;;;;;;10.26;65.29;97147.03;6132642;28;20617;-37
2023/03/24 03:13:56;;;;;;;1.90;1.70;;;;;;;10.31;64.91;97138.28;6131971;28;20240;-36
2023/03/24 03:17:14;;;;;;;2.10;1.57;;;;;;;10.33;65.04;97136.16;6126006;28;20245;-36
2023/03/24 03:20:21;;;;;;;3.47;1.80;;;;;;;10.40;65.34;97135.97;6130493;28;20743;-36
2023/03/24 03:23:35;;;;;;;2.97;1.80;;;;;;;10.37;65.38;97125.81;6130093;28;20232;-36
2023/03/24 03:26:39;;;;;;;1.57;1.40;;;;;;;10.39;65.32;97132.47;6132386;28;20799;-36
2023/03/24 03:29:46;;;;;;;2.20;1.60;;;;;;;10.42;65.23;97128.53;6126612;28;20791;-36
2023/03/24 03:32:55;;;;;;;2.47;1.70;;;;;;;10.36;65.19;97100.25;6142677;28;20327;-37
2023/03/24 03:36:04;;;;;;;1.47;1.30;;;;;;;10.46;66.00;97116.31;6129627;28;20773;-36
2023/03/24 03:39:21;;;;;;;1.63;1.47;;;;;;;10.46;65.76;97126.97;6128052;28;20237;-37
2023/03/24 03:42:23;;;;;;;1.60;1.50;;;;;;;10.47;65.45;97124.03;6131077;28;20238;-37
2023/03/24 03:45:26;;;;;;;1.80;1.70;;;;;;;10.47;65.51;97134.69;6142995;28;20236;-36
2023/03/24 03:48:28;;;;;;;1.80;1.60;;;;;;;10.46;65.01;97124.31;6129708;28;20372;-36
2023/03/24 03:51:32;;;;;;;3.80;1.63;;;;;;;10.45;64.92;97126.16;6130815;28;20244;-36
2023/03/24 03:54:36;;;;;;;2.70;1.90;;;;;;;10.45;65.25;97126.16;6145497;28;20647;-36
2023/03/24 03:57:40;;;;;;;1.97;1.60;;;;;;;10.46;65.28;97126.97;6128310;28;20292;-36
2023/03/24 04:00:50;;;;;;;1.93;1.70;;;;;;;10.47;65.66;97131.22;6130087;28;20267;-36
2023/03/24 04:04:25;;;;;;;2.10;1.63;;;;;;;10.48;65.43;97130.97;6133780;28;20621;-36
2023/03/24 04:07:56;;;;;;;1.97;1.50;;;;;;;10.54;65.41;97137.13;6134225;28;21039;-37
2023/03/24 04:11:37;;;;;;;2.00;1.73;;;;;;;10.53;65.36;97120.34;6120752;28;20320;-37
2023/03/24 04:15:17;;;;;;;2.47;1.60;;;;;;;10.53;65.38;97123.00;6131470;28;20648;-36
2023/03/24 04:18:55;;;;;;;1.70;1.60;;;;;;;10.48;65.86;97130.97;6107602;29;20662;-36
2023/03/24 04:22:22;;;;;;;2.13;1.70;;;;;;;10.48;65.63;97138.16;6108644;29;20766;-37
2023/03/24 04:26:13;;;;;;;1.50;1.40;;;;;;;10.46;65.36;97143.75;6106435;29;20841;-36
2023/03/24 04:29:41;;;;;;;2.50;1.83;;;;;;;10.51;65.28;97149.09;6077017;29;20309;-37
2023/03/24 04:33:10;;;;;;;1.37;1.27;;;;;;;10.50;65.48;97146.72;6092215;29;20377;-37
2023/03/24 04:36:28;;;;;;;1.77;1.40;;;;;;;10.53;65.88;97133.66;6089033;29;20690;-37
2023/03/24 04:40:04;;;;;;;2.30;1.33;;;;;;;10.37;66.00;97107.97;6091752;29;20592;-36
2023/03/24 04:43:09;;;;;;;1.67;1.37;;;;;;;10.56;65.60;97143.81;6108649;29;20440;-36
2023/03/24 04:46:16;;;;;;;1.90;1.53;;;;;;;10.40;65.89;97122.66;6091908;29;20238;-37
2023/03/24 04:49:48;;;;;;;1.53;1.43;;;;;;;10.53;65.68;97133.66;6097389;29;20875;-36
2023/03/24 04:52:51;;;;;;;2.53;1.50;;;;;;;10.55;65.91;97125.44;6136865;28;20721;-37
2023/03/24 04:56:15;;;;;;;1.60;1.40;;;;;;;10.50;65.29;97126.22;6132873;28;20743;-36
2023/03/24 04:59:41;;;;;;;1.67;1.57;;;;;;;10.48;65.56;97122.97;6127499;28;20236;-36
2023/03/24 05:02:44;;;;;;;1.50;1.40;;;;;;;10.46;66.46;97125.09;6134775;28;20271;-36
2023/03/24 05:05:53;;;;;;;1.43;1.33;;;;;;;10.41;66.46;97114.41;6149006;28;20232;-37
2023/03/24 05:08:57;;;;;;;1.67;1.53;;;;;;;10.41;66.15;97121.59;6134082;28;20707;-37
2023/03/24 05:12:02;;;;;;;1.53;1.40;;;;;;;10.43;66.31;97112.28;6134243;28;20245;-37
2023/03/24 05:15:15;;;;;;;1.40;1.30;;;;;;;10.47;66.48;97115.25;6128127;28;20315;-37
2023/03/24 05:18:20;;;;;;;1.70;1.33;;;;;;;10.44;66.99;97115.75;6133023;28;20213;-36
2023/03/24 05:21:22;;;;;;;1.60;1.50;;;;;;;10.43;67.24;97122.13;6132905;28;20237;-36
2023/03/24 05:24:24;;;;;;;1.67;1.57;;;;;;;10.45;66.43;97120.84;6131519;28;20384;-37
2023/03/24 05:27:26;;;;;;;1.97;1.60;;;;;;;10.48;66.39;97124.84;6128580;28;20271;-37
2023/03/24 05:30:29;;;;;;;2.23;1.77;;;;;;;10.49;66.37;97121.13;6133153;28;20238;-36
2023/03/24 05:33:41;;;;;;;2.63;1.80;;;;;;;10.51;66.34;97124.34;6131529;28;20244;-37
2023/03/24 05:36:46;;;;;;;1.73;1.63;;;;;;;10.59;66.43;97130.00;6129407;28;20248;-37
2023/03/24 05:39:53;;;;;;;2.53;1.73;;;;;;;10.35;66.75;97088.81;6132951;28;20240;-37
2023/03/24 05:43:29;;;;;;;1.40;1.30;;;;;;;10.46;66.35;97089.69;6120772;28;20330;-37
2023/03/24 05:46:41;;;;;;;2.03;1.50;;;;;;;10.62;66.68;97099.38;6131841;28;20319;-36
2023/03/24 05:49:44;;;;;;;1.97;1.77;;;;;;;10.81;66.71;97102.44;6131896;28;20246;-37
2023/03/24 05:52:46;;;;;;;1.50;1.40;;;;;;;10.32;66.44;97015.56;6132659;28;20244;-36
2023/03/24 05:56:20;;;;;;;4.37;1.90;;;;;;;10.97;65.62;97080.13;6090419;28;20236;-37
2023/03/24 05:59:40;;;;;;;2.67;1.90;;;;;;;11.24;65.54;97073.88;6135277;28;20254;-37
2023/03/24 06:03:04;;;;;;;1.50;1.40;;;;;;;11.51;65.23;97066.50;6123647;28;20260;-36
2023/03/24 06:06:30;;;;;;;1.80;1.60;;;;;;;11.81;64.25;97081.78;6125107;28;20245;-37
2023/03/24 06:09:34;;;;;;;1.43;1.33;;;;;;;11.93;63.65;97070.09;6131066;28;20241;-37
2023/03/24 06:12:41;;;;;;;2.83;1.87;;;;;;;12.05;62.54;97055.41;6133253;28;20610;-37
2023/03/24 06:15:45;;;;;;;1.83;1.57;;;;;;;12.17;62.87;97041.81;6131707;28;20248;-37
2023/03/24 06:19:05;;;;;;;2.07;1.70;;;;;;;12.32;62.00;97035.66;6132795;28;20243;-37
2023/03/24 06:22:26;;;;;;;2.03;1.73;;;;;;;12.46;61.95;97034.03;6130918;28;20766;-37
2023/03/24 06:25:28;;;;;;;1.87;1.70;;;;;;;12.64;60.39;97035.34;6128373;28;20235;-37
2023/03/24 06:29:02;;;;;;;2.10;1.80;;;;;;;12.81;60.44;97029.69;6122119;28;20232;-36
2023/03/24 06:32:10;;;;;;;3.10;1.73;;;;;;;12.97;59.57;97027.78;6130214;28;20238;-37
2023/03/24 06:35:16;;;;;;;1.77;1.67;;;;;;;13.14;59.79;97020.19;6125650;28;20234;-37
2023/03/24 06:38:26;;;;;;;1.90;1.80;;;;;;;13.31;59.03;97007.31;6130046;28;20231;-37
2023/03/24 06:41:30;;;;;;;2.83;2.20;;;;;;;13.46;58.69;97003.75;6133295;28;20353;-37
2023/03/24 06:44:34;;;;;;;2.83;1.83;;;;;;;13.50;59.07;96988.75;6126890;28;20234;-37
2023/03/24 06:47:36;;;;;;;2.93;1.60;;;;;;;13.22;58.83;96954.69;6132395;28;20297;-37
2023/03/24 06:50:39;;;;;;;2.97;1.77;;;;;;;13.38;58.67;96985.63;6131841;28;20230;-37
2023/03/24 06:53:44;;;;;;;1.80;1.70;;;;;;;13.42;58.68;96984.00;6114654;28;20245;-37
2023/03/24 06:56:47;;;;;;;4.33;1.87;;;;;;;13.48;58.54;96992.78;6142461;28;20325;-37
2023/03/24 06:59:51;;;;;;;2.50;2.00;;;;;;;13.56;58.91;96994.88;6129977;28;20258;-37
2023/03/24 07:02:55;;;;;;;2.13;1.87;;;;;;;13.65;57.78;96991.34;6139455;28;20620;-36
2023/03/24 07:05:58;;;;;;;2.37;2.00;;;;;;;13.72;58.15;96993.69;6129922;28;20742;-36
2023/03/24 07:09:01;;;;;;;2.43;2.10;;;;;;;13.74;57.64;96985.38;6114645;28;20234;-36
2023/03/24 07:12:05;;;;;;;3.80;3.10;;;;;;;13.77;57.27;96984.81;6139578;28;20574;-36
2023/03/24 07:15:09;;;;;;;3.03;2.80;;;;;;;13.96;56.55;96985.75;6146133;28;20218;-36
2023/03/24 07:18:12;;;;;;;3.40;3.03;;;;;;;14.13;56.68;96985.31;6130948;28;20319;-36
2023/03/24 07:21:17;;;;;;;4.57;3.47;;;;;;;14.26;56.48;96983.88;6130689;28;20310;-35
2023/03/24 07:24:23;;;;;;;4.40;3.30;;;;;;;14.44;55.67;96991.22;6128568;28;20235;-36
2023/03/24 07:27:33;;;;;;;5.37;4.70;;;;;;;14.55;54.04;96984.69;6126662;28;20234;-36
2023/03/24 07:30:36;;;;;;;4.93;3.70;;;;;;;14.67;54.55;96985.09;6126877;28;20934;-36
2023/03/24 07:33:55;;;;;;;6.37;4.40;;;;;;;14.87;54.56;97004.72;6142581;28;20239;-36
2023/03/24 07:36:57;;;;;;;6.33;4.57;;;;;;;15.04;53.89;97004.28;6128625;28;20580;-36
2023/03/24 07:40:10;;;;;;;5.60;5.00;;;;;;;15.16;53.30;97008.13;6136111;28;20612;-36
2023/03/24 07:43:12;;;;;;;7.07;5.50;;;;;;;15.26;51.43;96988.41;6112377;29;20243;-36
2023/03/24 07:46:33;;;;;;;5.90;5.27;;;;;;;15.50;50.02;97009.81;6133008;28;20234;-36
2023/03/24 07:49:36;;;;;;;6.80;5.40;;;;;;;15.62;48.51;97007.53;6135610;28;20234;-36
2023/03/24 07:52:45;;;;;;;6.00;5.00;;;;;;;15.70;48.56;97012.25;6135759;28;20345;-36
2023/03/24 07:55:48;;;;;;;4.50;4.10;;;;;;;15.80;48.40;97018.56;6131807;28;20605;-36
2023/03/24 07:58:56;;;;;;;7.37;5.07;;;;;;;15.74;48.49;96999.84;6134248;28;20293;-36
2023/03/24 08:02:19;;;;;;;6.73;5.10;;;;;;;16.00;47.68;97018.25;6123590;28;20226;-36
2023/03/24 08:05:30;;;;;;;8.07;5.07;;;;;;;16.14;47.09;97016.41;6135027;28;20855;-36
2023/03/24 08:08:53;;;;;;;7.43;4.90;;;;;;;16.26;46.64;97005.22;6134800;28;20234;-36
2023/03/24 08:11:55;;;;;;;6.77;5.70;;;;;;;16.40;45.60;97015.97;6135218;28;20244;-36
2023/03/24 08:14:58;;;;;;;6.23;5.63;;;;;;;16.06;45.15;96928.44;6135520;28;20590;-36
2023/03/24 08:18:00;;;;;;;5.90;4.97;;;;;;;16.70;44.93;97003.91;6135105;28;20238;-36
2023/03/24 08:21:02;;;;;;;7.43;6.03;;;;;;;16.25;44.20;96912.22;6124701;28;20297;-36
2023/03/24 08:24:05;;;;;;;7.13;5.33;;;;;;;16.95;44.41;97005.34;6133953;28;20297;-36
2023/03/24 08:27:07;;;;;;;7.20;5.37;;;;;;;17.11;43.61;97006.63;6134527;28;20807;-36
2023/03/24 08:30:13;;;;;;;6.90;5.03;;;;;;;17.27;43.71;97004.41;6133880;28;20674;-36
2023/03/24 08:33:16;;;;;;;6.83;5.80;;;;;;;17.45;42.88;97002.69;6135442;28;20764;-36
2023/03/24 08:36:18;;;;;;;5.80;5.20;;;;;;;17.67;41.96;97007.31;6135105;28;20770;-36
2023/03/24 08:39:20;;;;;;;6.47;4.97;;;;;;;17.77;41.99;96999.03;6134658;28;20726;-36
2023/03/24 08:42:22;;;;;;;6.50;5.60;;;;;;;18.01;41.07;97004.94;6132645;28;20232;-36
2023/03/24 08:45:27;;;;;;;8.83;5.40;;;;;;;18.08;40.44;96996.44;6135074;28;20744;-36
2023/03/24 08:48:30;;;;;;;6.23;5.13;;;;;;;18.21;40.71;96997.44;6133051;28;20265;-36
2023/03/24 08:51:32;;;;;;;8.53;5.70;;;;;;;18.27;39.84;97002.44;6132954;28;20241;-36
2023/03/24 08:54:35;;;;;;;5.63;5.00;;;;;;;18.28;40.57;96979.75;6135426;28;20718;-36
2023/03/24 08:57:37;;;;;;;6.30;5.40;;;;;;;18.40;41.41;96991.84;6134304;28;20749;-37
2023/03/24 09:00:40;;;;;;;8.17;5.80;;;;;;;18.38;41.16;96999.47;6133720;28;20777;-36
2023/03/24 09:03:43;;;;;;;8.13;5.50;;;;;;;18.24;41.01;96994.16;6130714;28;20236;-36
2023/03/24 09:06:45;;;;;;;8.77;5.57;;;;;;;18.29;42.11;96994.81;6133368;28;20335;-36
2023/03/24 09:09:47;;;;;;;6.70;4.93;;;;;;;18.09;42.02;96973.75;6134303;28;20729;-36
2023/03/24 09:12:49;;;;;;;10.40;6.63;;;;;;;18.32;42.46;96998.78;6133681;28;20236;-37
2023/03/24 09:15:56;;;;;;;7.40;6.57;;;;;;;18.03;43.10;96981.19;6131643;28;20238;-37
2023/03/24 09:18:58;;;;;;;8.03;7.23;;;;;;;18.24;43.21;97013.03;6133502;28;20596;-36
2023/03/24 09:22:00;;;;;;;11.17;7.80;;;;;;;18.25;43.30;97011.91;6133944;28;20242;-36
2023/03/24 09:25:03;;;;;;;9.77;8.10;;;;;;;18.33;43.32;97013.88;6132378;28;20772;-36
2023/03/24 09:28:07;;;;;;;10.37;7.80;;;;;;;18.43;43.11;97015.53;6129478;28;20234;-36
2023/03/24 09:31:10;;;;;;;13.80;9.73;;;;;;;18.54;43.00;97012.25;6134692;28;20694;-36
2023/03/24 09:34:12;;;;;;;11.83;8.80;;;;;;;18.65;42.88;97020.06;6133954;28;20242;-36
2023/03/24 09:37:15;;;;;;;16.27;10.10;;;;;;;18.67;43.20;97021.38;6134332;28;20242;-36
2023/03/24 09:40:26;;;;;;;13.60;10.83;;;;;;;18.64;43.69;97013.88;6130248;28;20325;-36
2023/03/24 09:43:51;;;;;;;13.13;9.90;;;;;;;18.79;43.69;97018.91;6133821;28;20242;-36
2023/03/24 09:47:01;;;;;;;12.57;9.87;;;;;;;18.94;43.45;97019.59;6132035;28;20585;-36
2023/03/24 09:50:16;;;;;;;14.03;10.40;;;;;;;19.07;43.35;97019.50;6123913;28;20238;-36
2023/03/24 09:53:24;;;;;;;11.40;9.23;;;;;;;19.27;43.11;97018.13;6133436;28;20333;-36
2023/03/24 09:56:36;;;;;;;15.30;10.47;;;;;;;19.24;42.34;97015.25;6123488;28;20322;-36
2023/03/24 09:59:39;;;;;;;15.97;9.67;;;;;;;19.29;42.21;97013.19;6132517;28;20270;-36
2023/03/24 10:02:41;;;;;;;12.70;11.33;;;;;;;19.40;41.07;97012.88;6133979;28;20332;-36
2023/03/24 10:05:57;;;;;;;12.87;8.93;;;;;;;19.58;40.85;97018.00;6134907;28;20245;-36
2023/03/24 10:09:30;;;;;;;12.60;10.10;;;;;;;19.63;40.16;97017.09;6132956;28;20251;-36
2023/03/24 10:12:37;;;;;;;11.63;9.90;;;;;;;19.56;41.10;97012.13;6078985;29;20351;-35
2023/03/24 10:15:49;;;;;;;11.50;9.10;;;;;;;19.73;39.64;96992.47;6079091;29;20237;-36
2023/03/24 10:18:54;;;;;;;9.90;8.80;;;;;;;19.84;39.21;96996.44;6085244;29;20240;-36
2023/03/24 10:22:29;;;;;;;8.83;7.97;;;;;;;20.15;39.46;96997.34;6082292;29;20252;-36
2023/03/24 10:25:38;;;;;;;12.07;8.83;;;;;;;20.23;38.83;96991.94;6079741;29;20259;-37
2023/03/24 10:28:51;;;;;;;10.30;8.53;;;;;;;20.08;38.60;96966.19;6078943;29;20295;-37
2023/03/24 10:32:03;;;;;;;12.27;10.47;;;;;;;20.29;38.72;96989.84;6082389;29;20291;-37
2023/03/24 10:35:08;;;;;;;11.67;10.00;;;;;;;20.31;38.77;96984.94;6081138;29;20248;-37
2023/03/24 10:38:21;;;;;;;13.60;11.57;;;;;;;20.27;39.43;96992.91;6082888;29;20302;-37
2023/03/24 10:41:27;;;;;;;10.87;9.87;;;;;;;20.29;39.87;96992.56;6078884;28;20332;-37
2023/03/24 10:44:30;;;;;;;11.03;9.77;;;;;;;20.02;39.16;96983.69;6082742;29;20791;-37
2023/03/24 10:47:33;;;;;;;13.17;11.87;;;;;;;20.05;38.74;96999.31;6084456;29;20710;-37
2023/03/24 10:50:41;;;;;;;11.73;10.33;;;;;;;20.01;38.70;96998.34;6127468;28;20234;-37
2023/03/24 10:53:47;;;;;;;11.43;10.20;;;;;;;19.96;39.70;96982.28;6132722;28;20714;-37
2023/03/24 10:56:51;;;;;;;13.67;11.63;;;;;;;20.10;39.22;96993.72;6130121;28;20249;-37
2023/03/24 10:59:58;;;;;;;11.93;10.73;;;;;;;20.07;39.26;96990.84;6121449;28;20744;-37
2023/03/24 11:03:10;;;;;;;14.37;11.37;;;;;;;20.03;39.08;96981.78;6132705;28;20238;-37
2023/03/24 11:06:19;;;;;;;11.80;9.77;;;;;;;20.03;39.41;96976.38;6126962;28;20241;-37
2023/03/24 11:09:21;;;;;;;15.80;11.97;;;;;;;20.08;39.61;96977.00;6131615;28;20362;-37
2023/03/24 11:12:27;;;;;;;11.90;10.50;;;;;;;20.26;39.54;96972.38;6131788;28;20226;-37
2023/03/24 11:15:35;;;;;;;13.23;10.70;;;;;;;20.43;40.16;96966.13;6127282;28;20234;-37
2023/03/24 11:18:37;;;;;;;14.37;11.00;;;;;;;20.29;39.57;96928.44;6131347;28;20239;-37
2023/03/24 11:21:41;;;;;;;13.67;11.93;;;;;;;20.52;39.41;96963.41;6131728;28;20266;-37
2023/03/24 11:24:50;;;;;;;13.47;12.13;;;;;;;20.48;39.56;96957.06;6130295;28;20716;-36
2023/03/24 11:27:58;;;;;;;13.43;10.47;;;;;;;20.55;39.31;96960.88;6131945;28;20725;-37
2023/03/24 11:31:06;;;;;;;12.03;10.17;;;;;;;20.64;39.07;96957.31;6130782;28;20245;-37
2023/03/24 11:34:12;;;;;;;11.67;10.47;;;;;;;20.71;38.87;96953.00;6118940;28;20807;-37
2023/03/24 11:37:21;;;;;;;14.77;11.10;;;;;;;20.56;38.68;96931.91;6131955;28;20242;-37
2023/03/24 11:40:25;;;;;;;13.90;11.20;;;;;;;20.66;38.94;96946.97;6130856;28;20246;-37
2023/03/24 11:43:27;;;;;;;15.47;11.33;;;;;;;20.55;38.85;96951.97;6131346;28;20238;-37
2023/03/24 11:46:30;;;;;;;12.57;9.90;;;;;;;20.59;39.53;96952.88;6130833;28;20238;-37
2023/03/24 11:49:39;;;;;;;12.73;10.80;;;;;;;20.54;38.85;96947.63;6131893;28;20719;-37
2023/03/24 11:52:53;;;;;;;14.37;11.07;;;;;;;20.31;39.58;96928.91;6128512;28;20238;-37
2023/03/24 11:56:21;;;;;;;14.47;11.60;;;;;;;20.38;38.95;96947.34;6144498;28;20235;-37
2023/03/24 11:59:50;;;;;;;12.43;11.23;;;;;;;19.83;39.07;96919.16;6130643;28;20703;-37
2023/03/24 12:03:34;;;;;;;10.70;9.60;;;;;;;20.06;39.91;96941.41;6129585;28;20706;-37
2023/03/24 12:07:13;;;;;;;15.17;10.20;;;;;;;20.14;40.13;96945.19;6129717;28;20234;-37
2023/03/24 12:10:47;;;;;;;12.37;9.03;;;;;;;20.27;39.29;96936.09;6123816;28;20703;-36
2023/03/24 12:13:51;;;;;;;12.50;11.20;;;;;;;20.28;38.95;96923.34;6129273;28;20246;-37
2023/03/24 12:17:35;;;;;;;11.77;9.33;;;;;;;20.29;39.00;96946.56;6134688;28;20714;-36
2023/03/24 12:20:49;;;;;;;11.57;9.63;;;;;;;20.26;39.44;96937.22;6074303;29;20228;-37
2023/03/24 12:24:04;;;;;;;12.93;10.63;;;;;;;20.08;39.68;96952.66;6074273;29;20236;-37
2023/03/24 12:27:36;;;;;;;11.33;10.10;;;;;;;20.01;39.46;96943.47;6072451;29;20620;-37
2023/03/24 12:31:07;;;;;;;12.23;10.27;;;;;;;20.01;39.98;96944.28;6079545;29;20287;-36
2023/03/24 12:34:37;;;;;;;11.13;9.60;;;;;;;20.21;39.07;96940.09;6079865;29;20232;-37
2023/03/24 12:37:48;;;;;;;10.47;9.37;;;;;;;20.47;39.01;96948.16;6078191;29;20262;-37
2023/03/24 12:41:13;;;;;;;11.50;9.40;;;;;;;20.63;38.92;96944.91;6071670;29;20259;-37
2023/03/24 12:44:48;;;;;;;11.67;9.47;;;;;;;20.77;39.07;96945.50;6076146;29;20279;-37
2023/03/24 12:47:52;;;;;;;9.67;8.67;;;;;;;20.78;38.45;96939.75;6075842;29;20252;-37
2023/03/24 12:51:06;;;;;;;10.67;9.50;;;;;;;20.75;38.26;96936.91;6076079;29;20319;-37
2023/03/24 12:54:24;;;;;;;10.63;9.40;;;;;;;20.72;37.95;96934.84;6096946;28;20752;-37
2023/03/24 12:57:30;;;;;;;10.97;9.17;;;;;;;20.74;38.37;96936.13;6134900;28;20230;-37
2023/03/24 13:00:45;;;;;;;12.63;9.37;;;;;;;20.71;37.99;96928.63;6134632;28;20239;-37
2023/03/24 13:04:04;;;;;;;11.00;9.23;;;;;;;20.78;38.08;96926.19;6134487;28;20239;-37
2023/03/24 13:07:13;;;;;;;12.33;9.13;;;;;;;20.51;39.36;96902.31;6134296;28;20231;-37
2023/03/24 13:10:27;;;;;;;11.13;9.70;;;;;;;20.47;38.97;96918.38;6131250;28;20753;-36
2023/03/24 13:13:35;;;;;;;9.23;7.80;;;;;;;20.48;39.49;96905.66;6133927;28;20325;-37
2023/03/24 13:16:39;;;;;;;10.07;6.90;;;;;;;20.66;38.85;96920.69;6127528;28;20231;-37
2023/03/24 13:19:41;;;;;;;10.50;8.87;;;;;;;20.69;38.67;96928.19;6128852;28;20730;-37
2023/03/24 13:22:43;;;;;;;9.60;7.97;;;;;;;20.56;38.38;96916.44;6127504;28;20257;-36
2023/03/24 13:25:58;;;;;;;12.43;8.00;;;;;;;20.56;38.64;96913.75;6135433;28;20286;-37
2023/03/24 13:29:00;;;;;;;10.33;8.90;;;;;;;20.42;38.93;96925.88;6132679;28;20258;-37
2023/03/24 13:32:23;;;;;;;13.17;9.37;;;;;;;20.31;40.28;96915.41;6128295;28;20230;-37
2023/03/24 13:35:44;;;;;;;10.83;8.17;;;;;;;20.30;39.00;96923.84;6128634;28;20219;-36
2023/03/24 13:38:51;;;;;;;8.83;7.27;;;;;;;20.42;38.99;96926.66;6126741;28;20237;-37
2023/03/24 13:41:56;;;;;;;9.25;8.35;;;;;;;20.78;37.86;96923.50;6127068;28;20528;-37
2023/03/24 13:45:00;;;;;;;5.17;4.53;;;;;;;20.47;36.46;96917.59;6127770;28;20234;-37
2023/03/24 13:48:21;;;;;;;7.63;5.63;;;;;;;20.53;37.59;96917.09;6129555;28;20816;-37
2023/03/24 13:51:31;;;;;;;4.70;3.10;;;;;;;20.57;36.51;96901.78;6130445;28;20241;-37
2023/03/24 13:54:36;;;;;;;5.90;3.27;;;;;;;20.61;35.96;96915.47;6126939;28;20227;-37
2023/03/24 13:57:41;;;;;;;5.03;2.63;;;;;;;20.77;35.70;96915.72;6124360;28;20234;-36
2023/03/24 14:01:07;;;;;;;3.30;2.70;;;;;;;20.86;36.13;96930.78;6130148;28;20242;-37
2023/03/24 14:04:18;;;;;;;3.37;2.97;;;;;;;20.59;35.74;96931.22;6129173;28;20235;-37
2023/03/24 14:07:31;;;;;;;3.03;2.13;;;;;;;20.38;36.54;96922.22;6121607;28;20222;-37
2023/03/24 14:10:45;;;;;;;2.10;1.90;;;;;;;20.16;36.50;96917.84;6129178;28;20275;-37
2023/03/24 14:13:48;;;;;;;4.23;2.40;;;;;;;20.20;36.89;96914.16;6128856;28;20274;-37
2023/03/24 14:17:07;;;;;;;6.15;2.28;;;;;;;20.10;37.49;96928.81;6128213;28;20554;-37
2023/03/24 14:20:12;;;;;;;6.33;2.47;;;;;;;19.93;37.58;96934.25;6125463;28;20774;-37
2023/03/24 14:23:36;;;;;;;4.63;2.43;;;;;;;19.80;38.05;96922.53;6126625;28;20297;-36
2023/03/24 14:26:39;;;;;;;2.83;2.17;;;;;;;19.84;38.06;96925.34;6126842;28;20254;-37
2023/03/24 14:29:51;;;;;;;4.13;2.63;;;;;;;19.61;38.93;96949.06;6125003;28;20234;-37
2023/03/24 14:32:58;;;;;;;5.07;2.90;;;;;;;19.19;39.73;96943.28;6127958;28;20309;-37
2023/03/24 14:36:05;;;;;;;5.20;3.30;;;;;;;18.83;41.10;96948.91;6133808;28;20227;-37
2023/03/24 14:39:31;;;;;;;6.10;3.67;;;;;;;18.67;42.09;96951.22;6119018;28;20317;-36
2023/03/24 14:42:33;;;;;;;5.73;3.67;;;;;;;18.48;43.09;96956.06;6128617;28;20234;-36
2023/03/24 14:45:50;;;;;;;7.20;4.17;;;;;;;18.48;43.93;96958.75;6131222;28;20325;-37
2023/03/24 14:48:57;;;;;;;4.43;3.70;;;;;;;18.46;43.39;96960.94;6125179;28;20707;-37
2023/03/24 14:52:15;;;;;;;5.07;3.60;;;;;;;18.47;43.85;96960.66;6128436;28;20246;-36